createdAt,value
2017-12-17T00:01:00.455Z,17.40
2017-12-17T00:03:28.035Z,12.32
2017-12-17T00:05:56.426Z,15.95
2017-12-17T00:08:24.043Z,13.70
2017-12-17T00:10:51.634Z,14.32
2017-12-17T00:13:20.042Z,14.50
2017-12-17T00:15:47.672Z,17.02
2017-12-17T00:18:16.018Z,12.85
2017-12-17T00:20:43.635Z,11.50
2017-12-17T00:23:11.215Z,12.32
2017-12-17T00:25:38.784Z,10.85
2017-12-17T00:28:06.341Z,16.70
2017-12-17T00:30:33.975Z,16.45
2017-12-17T00:33:02.285Z,15.93
2017-12-17T00:35:29.839Z,18.37
2017-12-17T00:37:57.528Z,18.58
2017-12-17T00:40:25.154Z,16.77
2017-12-17T00:42:52.802Z,18.80
2017-12-17T00:45:20.371Z,18.55
2017-12-17T00:47:47.993Z,15.38
2017-12-17T00:50:15.651Z,17.20
2017-12-17T00:52:43.271Z,12.40
2017-12-17T00:55:10.838Z,12.95
2017-12-17T00:57:38.445Z,11.32
2017-12-17T01:00:06.796Z,16.02
2017-12-17T01:02:34.342Z,11.02
2017-12-17T01:05:01.924Z,17.02
2017-12-17T01:07:30.390Z,15.38
2017-12-17T01:09:57.983Z,15.35
2017-12-17T01:12:25.625Z,11.30
2017-12-17T01:14:54.064Z,11.65
2017-12-17T01:17:22.525Z,13.82
2017-12-17T01:19:50.136Z,15.05
2017-12-17T01:22:18.486Z,12.75
2017-12-17T01:24:47.020Z,17.98
2017-12-17T01:27:14.754Z,10.93
2017-12-17T01:29:43.110Z,13.88
2017-12-17T01:32:10.695Z,10.40
2017-12-17T01:34:38.367Z,14.02
2017-12-17T01:37:05.977Z,19.05
2017-12-17T01:39:33.587Z,11.57
2017-12-17T01:42:01.164Z,13.62
2017-12-17T01:44:28.766Z,12.82
2017-12-17T01:46:56.395Z,13.52
2017-12-17T01:49:23.971Z,16.35
2017-12-17T01:51:52.304Z,15.57
2017-12-17T01:54:19.905Z,10.73
2017-12-17T01:56:47.614Z,11.48
2017-12-17T01:59:16.078Z,13.18
2017-12-17T02:01:43.639Z,19.73
2017-12-17T02:04:11.252Z,15.40
2017-12-17T02:06:38.948Z,15.05
2017-12-17T02:09:06.614Z,16.08
2017-12-17T02:11:34.220Z,14.40
2017-12-17T02:14:01.791Z,18.25
2017-12-17T02:16:29.350Z,16.02
2017-12-17T02:18:56.958Z,20.15
2017-12-17T02:21:24.558Z,15.75
2017-12-17T02:23:52.150Z,14.35
2017-12-17T02:26:19.766Z,18.45
2017-12-17T02:28:48.156Z,14.50
2017-12-17T02:31:15.756Z,14.02
2017-12-17T02:33:43.358Z,12.07
2017-12-17T02:36:10.943Z,13.80
2017-12-17T02:38:38.521Z,11.23
2017-12-17T02:41:06.141Z,10.05
2017-12-17T02:43:34.475Z,14.80
2017-12-17T02:46:02.089Z,11.12
2017-12-17T02:48:30.418Z,12.80
2017-12-17T02:50:58.053Z,13.00
2017-12-17T02:53:25.618Z,10.80
2017-12-17T02:55:53.266Z,18.75
2017-12-17T02:58:20.889Z,15.18
2017-12-17T03:00:48.486Z,18.40
2017-12-17T03:03:16.104Z,16.37
2017-12-17T03:05:43.660Z,13.32
2017-12-17T03:08:18.510Z,11.82
2017-12-17T03:10:46.061Z,15.00
2017-12-17T03:13:13.686Z,20.23
2017-12-17T03:15:41.275Z,14.85
2017-12-17T03:18:08.891Z,12.65
2017-12-17T03:20:36.468Z,11.57
2017-12-17T03:23:04.034Z,17.30
2017-12-17T03:25:31.659Z,11.43
2017-12-17T03:27:59.727Z,19.02
2017-12-17T03:30:27.372Z,14.40
2017-12-17T03:32:54.996Z,12.85
2017-12-17T03:35:22.602Z,18.92
2017-12-17T03:37:50.229Z,12.37
2017-12-17T03:40:18.603Z,14.85
2017-12-17T03:42:46.967Z,18.12
2017-12-17T03:45:15.372Z,17.87
2017-12-17T03:47:43.024Z,17.37
2017-12-17T03:50:10.657Z,15.63
2017-12-17T03:52:38.216Z,11.57
2017-12-17T03:55:05.782Z,16.62
2017-12-17T03:57:33.376Z,14.85
2017-12-17T04:00:01.009Z,15.93
2017-12-17T04:02:29.392Z,16.98
2017-12-17T04:04:57.064Z,18.23
2017-12-17T04:07:26.092Z,14.77
2017-12-17T04:09:53.731Z,11.73
2017-12-17T04:12:22.290Z,15.95
2017-12-17T04:14:49.999Z,14.32
2017-12-17T04:17:17.580Z,17.42
2017-12-17T04:19:45.244Z,17.50
2017-12-17T04:22:12.828Z,12.80
2017-12-17T04:24:40.430Z,14.07
2017-12-17T04:27:08.066Z,19.10
2017-12-17T04:29:36.476Z,17.08
2017-12-17T04:32:04.104Z,14.45
2017-12-17T04:34:31.688Z,16.77
2017-12-17T04:36:59.314Z,14.05
2017-12-17T04:39:27.017Z,22.20
2017-12-17T04:41:54.687Z,15.68
2017-12-17T04:44:22.298Z,21.45
2017-12-17T04:46:49.921Z,14.80
2017-12-17T04:49:17.486Z,16.50
2017-12-17T04:51:45.104Z,16.75
2017-12-17T04:54:13.496Z,18.92
2017-12-17T04:56:41.203Z,22.83
2017-12-17T04:59:08.840Z,16.10
2017-12-17T05:01:36.561Z,12.80
2017-12-17T05:04:04.164Z,14.10
2017-12-17T05:06:31.797Z,15.88
2017-12-17T05:09:00.200Z,12.25
2017-12-17T05:11:27.843Z,20.40
2017-12-17T05:13:56.191Z,13.35
2017-12-17T05:16:23.799Z,19.60
2017-12-17T05:18:51.448Z,14.45
2017-12-17T05:21:19.045Z,18.65
2017-12-17T05:23:46.716Z,15.18
2017-12-17T05:26:14.358Z,17.25
2017-12-17T05:28:42.089Z,17.00
2017-12-17T05:31:09.749Z,18.85
2017-12-17T05:33:37.381Z,28.10
2017-12-17T05:36:05.047Z,22.13
2017-12-17T05:38:32.636Z,23.73
2017-12-17T05:41:00.258Z,18.75
2017-12-17T05:43:27.946Z,25.77
2017-12-17T05:45:56.499Z,20.60
2017-12-17T05:48:24.170Z,22.27
2017-12-17T05:50:51.755Z,20.92
2017-12-17T05:53:19.360Z,16.77
2017-12-17T05:55:46.952Z,18.75
2017-12-17T05:58:14.552Z,26.42
2017-12-17T06:00:42.223Z,26.48
2017-12-17T06:03:09.842Z,18.90
2017-12-17T06:05:37.541Z,26.00
2017-12-17T06:08:05.233Z,25.20
2017-12-17T06:10:32.873Z,17.05
2017-12-17T06:13:00.520Z,23.25
2017-12-17T06:15:28.635Z,18.65
2017-12-17T06:17:56.245Z,18.23
2017-12-17T06:20:23.858Z,17.20
2017-12-17T06:22:51.428Z,19.05
2017-12-17T06:25:19.813Z,18.42
2017-12-17T06:27:48.170Z,25.50
2017-12-17T06:30:15.775Z,26.08
2017-12-17T06:32:43.634Z,17.02
2017-12-17T06:35:11.982Z,19.12
2017-12-17T06:37:39.663Z,26.37
2017-12-17T06:40:07.267Z,23.25
2017-12-17T06:42:34.858Z,26.67
2017-12-17T06:45:02.476Z,22.33
2017-12-17T06:47:30.126Z,23.02
2017-12-17T06:49:58.520Z,32.55
2017-12-17T06:52:26.212Z,19.95
2017-12-17T06:54:53.842Z,29.27
2017-12-17T06:57:21.433Z,35.20
2017-12-17T06:59:49.097Z,31.95
2017-12-17T07:02:18.562Z,26.87
2017-12-17T07:04:46.178Z,25.52
2017-12-17T07:07:13.904Z,25.42
2017-12-17T07:09:42.469Z,31.75
2017-12-17T07:12:10.093Z,18.25
2017-12-17T07:14:37.894Z,26.58
2017-12-17T07:17:05.463Z,25.75
2017-12-17T07:19:33.105Z,25.25
2017-12-17T07:22:00.689Z,26.80
2017-12-17T07:24:28.319Z,25.40
2017-12-17T07:26:55.943Z,25.85
2017-12-17T07:29:23.544Z,32.17
2017-12-17T07:31:51.233Z,27.62
2017-12-17T07:34:18.790Z,29.37
2017-12-17T07:36:46.375Z,29.42
2017-12-17T07:39:14.018Z,35.85
2017-12-17T07:41:41.657Z,36.72
2017-12-17T07:44:09.269Z,40.15
2017-12-17T07:46:36.914Z,38.75
2017-12-17T07:49:05.285Z,36.40
2017-12-17T07:51:32.878Z,35.42
2017-12-17T07:54:00.533Z,36.67
2017-12-17T07:56:28.436Z,42.58
2017-12-17T07:58:56.042Z,38.03
2017-12-17T08:01:24.467Z,31.23
2017-12-17T08:03:52.085Z,31.52
2017-12-17T08:06:24.073Z,35.85
2017-12-17T08:08:52.089Z,36.65
2017-12-17T08:11:19.726Z,29.12
2017-12-17T08:13:47.310Z,33.20
2017-12-17T08:16:14.982Z,30.52
2017-12-17T08:18:42.745Z,42.65
2017-12-17T08:21:10.335Z,31.17
2017-12-17T08:23:37.943Z,32.95
2017-12-17T08:26:05.640Z,30.52
2017-12-17T08:28:33.241Z,37.95
2017-12-17T08:31:01.677Z,27.90
2017-12-17T08:33:29.550Z,22.55
2017-12-17T08:35:58.036Z,26.92
2017-12-17T08:38:26.436Z,29.37
2017-12-17T08:40:54.113Z,22.00
2017-12-17T08:43:21.805Z,24.48
2017-12-17T08:45:50.321Z,24.30
2017-12-17T08:48:18.660Z,27.13
2017-12-17T08:50:46.251Z,28.80
2017-12-17T08:53:13.906Z,21.67
2017-12-17T08:55:41.565Z,19.83
2017-12-17T08:58:09.225Z,23.10
2017-12-17T09:00:36.800Z,24.40
2017-12-17T09:03:04.367Z,25.30
2017-12-17T09:05:32.784Z,26.20
2017-12-17T09:08:00.377Z,28.80
2017-12-17T09:10:28.002Z,24.87
2017-12-17T09:12:55.631Z,20.80
2017-12-17T09:15:23.230Z,25.60
2017-12-17T09:17:50.811Z,20.98
2017-12-17T09:20:19.208Z,25.30
2017-12-17T09:22:46.839Z,28.52
2017-12-17T09:25:14.399Z,33.20
2017-12-17T09:27:42.010Z,26.67
2017-12-17T09:30:10.417Z,23.17
2017-12-17T09:32:38.077Z,25.40
2017-12-17T09:35:06.403Z,26.65
2017-12-17T09:37:34.004Z,25.60
2017-12-17T09:40:01.690Z,22.62
2017-12-17T09:42:29.358Z,26.95
2017-12-17T09:44:57.825Z,23.02
2017-12-17T09:47:25.971Z,32.63
2017-12-17T09:49:53.661Z,22.02
2017-12-17T09:52:21.260Z,22.45
2017-12-17T09:54:49.654Z,22.30
2017-12-17T09:57:17.470Z,24.52
2017-12-17T09:59:45.107Z,29.48
2017-12-17T10:02:13.509Z,25.88
2017-12-17T10:04:41.181Z,27.02
2017-12-17T10:07:08.911Z,24.63
2017-12-17T10:09:36.486Z,24.02
2017-12-17T10:12:04.103Z,27.83
2017-12-17T10:14:31.680Z,24.70
2017-12-17T10:16:59.323Z,30.90
2017-12-17T10:19:26.928Z,27.13
2017-12-17T10:21:54.515Z,18.83
2017-12-17T10:24:22.152Z,29.60
2017-12-17T10:26:49.782Z,25.55
2017-12-17T10:29:17.514Z,22.67
2017-12-17T10:31:45.110Z,29.30
2017-12-17T10:34:14.888Z,21.25
2017-12-17T10:36:42.511Z,22.77
2017-12-17T10:39:10.064Z,21.67
2017-12-17T10:41:37.642Z,24.55
2017-12-17T10:44:05.259Z,18.60
2017-12-17T10:46:33.677Z,16.77
2017-12-17T10:49:01.286Z,23.30
2017-12-17T10:51:29.398Z,16.58
2017-12-17T10:53:58.791Z,22.42
2017-12-17T10:56:26.347Z,23.75
2017-12-17T10:58:54.701Z,18.77
2017-12-17T11:01:22.346Z,16.62
2017-12-17T11:03:49.966Z,18.05
2017-12-17T11:06:18.292Z,19.42
2017-12-17T11:08:45.972Z,26.20
2017-12-17T11:11:13.597Z,18.87
2017-12-17T11:13:42.608Z,14.93
2017-12-17T11:16:10.961Z,18.95
2017-12-17T11:18:38.584Z,23.30
2017-12-17T11:21:07.295Z,20.90
2017-12-17T11:23:34.910Z,16.12
2017-12-17T11:26:03.290Z,15.15
2017-12-17T11:28:30.855Z,20.20
2017-12-17T11:30:58.561Z,17.50
2017-12-17T11:33:26.224Z,17.85
2017-12-17T11:35:54.689Z,10.93
2017-12-17T11:38:22.302Z,18.12
2017-12-17T11:40:49.936Z,21.77
2017-12-17T11:43:17.564Z,21.60
2017-12-17T11:45:45.282Z,22.27
2017-12-17T11:48:13.426Z,18.08
2017-12-17T11:50:41.012Z,15.20
2017-12-17T11:53:08.616Z,18.90
2017-12-17T11:55:36.216Z,15.00
2017-12-17T11:58:03.951Z,16.98
2017-12-17T12:00:31.558Z,14.98
2017-12-17T12:02:59.164Z,13.55
2017-12-17T12:05:26.770Z,15.57
2017-12-17T12:07:54.451Z,16.95
2017-12-17T12:10:22.053Z,17.45
2017-12-17T12:12:49.725Z,13.95
2017-12-17T12:15:17.334Z,18.48
2017-12-17T12:17:44.972Z,16.17
2017-12-17T12:20:12.576Z,15.15
2017-12-17T12:22:40.166Z,17.70
2017-12-17T12:25:08.539Z,19.87
2017-12-17T12:27:36.137Z,18.52
2017-12-17T12:30:03.764Z,17.37
2017-12-17T12:32:31.400Z,19.25
2017-12-17T12:34:58.980Z,15.73
2017-12-17T12:37:26.623Z,21.15
2017-12-17T12:39:54.272Z,17.35
2017-12-17T12:42:22.682Z,16.17
2017-12-17T12:44:50.324Z,19.77
2017-12-17T12:47:18.009Z,19.00
2017-12-17T12:49:46.408Z,18.40
2017-12-17T12:52:14.001Z,17.02
2017-12-17T12:54:41.712Z,15.73
2017-12-17T12:57:10.068Z,17.92
2017-12-17T12:59:37.650Z,24.67
2017-12-17T13:02:05.211Z,12.95
2017-12-17T13:04:32.842Z,13.60
2017-12-17T13:07:00.427Z,12.27
2017-12-17T13:09:28.029Z,17.50
2017-12-17T13:11:55.667Z,29.27
2017-12-17T13:14:24.145Z,15.82
2017-12-17T13:16:51.765Z,20.65
2017-12-17T13:19:20.227Z,13.15
2017-12-17T13:21:47.878Z,20.10
2017-12-17T13:24:15.606Z,16.90
2017-12-17T13:26:44.050Z,17.08
2017-12-17T13:29:11.653Z,16.90
2017-12-17T13:31:39.289Z,15.23
2017-12-17T13:34:06.896Z,13.40
2017-12-17T13:36:34.582Z,22.50
2017-12-17T13:39:02.218Z,19.20
2017-12-17T13:41:29.834Z,14.27
2017-12-17T13:43:58.302Z,14.02
2017-12-17T13:46:26.083Z,13.90
2017-12-17T13:48:54.599Z,16.92
2017-12-17T13:51:23.023Z,24.77
2017-12-17T13:53:50.719Z,20.10
2017-12-17T13:56:18.407Z,19.85
2017-12-17T13:58:46.000Z,20.35
2017-12-17T14:01:13.700Z,22.37
2017-12-17T14:03:41.331Z,26.37
2017-12-17T14:06:09.082Z,21.65
2017-12-17T14:08:36.705Z,15.55
2017-12-17T14:11:05.443Z,22.95
2017-12-17T14:13:33.112Z,21.80
2017-12-17T14:16:01.792Z,21.75
2017-12-17T14:18:29.430Z,20.70
2017-12-17T14:20:57.020Z,27.08
2017-12-17T14:23:25.498Z,25.20
2017-12-17T14:25:53.231Z,29.60
2017-12-17T14:28:20.895Z,23.15
2017-12-17T14:30:48.474Z,28.55
2017-12-17T14:33:16.168Z,22.95
2017-12-17T14:35:43.853Z,20.92
2017-12-17T14:38:19.279Z,20.08
2017-12-17T14:40:47.348Z,25.40
2017-12-17T14:43:14.925Z,25.23
2017-12-17T14:45:42.644Z,23.00
2017-12-17T14:48:10.250Z,30.83
2017-12-17T14:50:37.964Z,26.73
2017-12-17T14:53:05.569Z,29.02
2017-12-17T14:55:33.149Z,14.75
2017-12-17T14:58:00.812Z,29.52
2017-12-17T15:00:28.383Z,29.37
2017-12-17T15:02:56.523Z,31.98
2017-12-17T15:05:24.158Z,33.60
2017-12-17T15:07:51.826Z,36.25
2017-12-17T15:10:19.479Z,30.52
2017-12-17T15:12:47.123Z,44.58
2017-12-17T15:15:14.716Z,36.63
2017-12-17T15:17:47.599Z,40.80
2017-12-17T15:20:15.351Z,41.28
2017-12-17T15:22:43.003Z,35.80
2017-12-17T15:25:10.654Z,36.85
2017-12-17T15:27:38.308Z,37.63
2017-12-17T15:30:05.912Z,39.38
2017-12-17T15:32:33.615Z,32.97
2017-12-17T15:35:01.241Z,36.90
2017-12-17T15:37:28.914Z,39.78
2017-12-17T15:39:58.109Z,44.50
2017-12-17T15:42:25.835Z,39.95
2017-12-17T15:44:53.493Z,38.38
2017-12-17T15:47:21.173Z,61.42
2017-12-17T15:49:48.763Z,35.22
2017-12-17T15:52:16.379Z,40.85
2017-12-17T15:54:43.938Z,43.40
2017-12-17T15:57:11.706Z,37.97
2017-12-17T15:59:39.326Z,28.77
2017-12-17T16:02:06.945Z,32.20
2017-12-17T16:04:34.555Z,43.45
2017-12-17T16:07:02.283Z,34.53
2017-12-17T16:09:29.973Z,50.30
2017-12-17T16:11:57.706Z,46.72
2017-12-17T16:14:25.332Z,32.55
2017-12-17T16:16:52.964Z,35.75
2017-12-17T16:19:20.563Z,39.95
2017-12-17T16:21:48.224Z,38.05
2017-12-17T16:24:15.909Z,42.08
2017-12-17T16:26:43.572Z,37.25
2017-12-17T16:29:11.203Z,43.00
2017-12-17T16:31:38.773Z,40.92
2017-12-17T16:34:06.510Z,38.35
2017-12-17T16:36:34.060Z,44.17
2017-12-17T16:39:01.775Z,39.40
2017-12-17T16:41:29.470Z,34.45
2017-12-17T16:43:57.868Z,39.33
2017-12-17T16:46:25.565Z,41.30
2017-12-17T16:48:53.218Z,56.17
2017-12-17T16:51:20.804Z,42.25
2017-12-17T16:53:48.411Z,37.67
2017-12-17T16:56:16.242Z,39.40
2017-12-17T16:58:43.918Z,40.55
2017-12-17T17:01:12.313Z,38.20
2017-12-17T17:03:39.927Z,49.50
2017-12-17T17:06:07.532Z,40.85
2017-12-17T17:08:35.102Z,48.40
2017-12-17T17:11:02.756Z,49.05
2017-12-17T17:13:30.383Z,56.10
2017-12-17T17:15:57.965Z,49.17
2017-12-17T17:18:25.600Z,45.83
2017-12-17T17:20:53.194Z,51.55
2017-12-17T17:23:21.537Z,49.03
2017-12-17T17:25:49.125Z,50.75
2017-12-17T17:28:17.552Z,53.20
2017-12-17T17:30:45.172Z,56.03
2017-12-17T17:33:12.895Z,49.40
2017-12-17T17:35:40.513Z,61.05
2017-12-17T17:38:08.580Z,68.45
2017-12-17T17:40:36.531Z,65.47
2017-12-17T17:43:04.432Z,59.55
2017-12-17T17:45:32.985Z,61.53
2017-12-17T17:48:01.378Z,71.72
2017-12-17T17:50:28.984Z,49.92
2017-12-17T17:52:56.563Z,62.40
2017-12-17T17:55:24.193Z,58.45
2017-12-17T17:57:51.881Z,82.95
2017-12-17T18:00:19.586Z,57.13
2017-12-17T18:02:47.190Z,59.92
2017-12-17T18:05:15.642Z,78.57
2017-12-17T18:07:43.266Z,68.60
2017-12-17T18:10:10.934Z,70.75
2017-12-17T18:12:38.606Z,73.65
2017-12-17T18:15:06.165Z,68.28
2017-12-17T18:17:33.812Z,66.12
2017-12-17T18:20:01.378Z,64.68
2017-12-17T18:22:28.995Z,93.18
2017-12-17T18:24:56.607Z,84.10
2017-12-17T18:27:24.177Z,60.42
2017-12-17T18:29:51.799Z,67.80
2017-12-17T18:32:19.854Z,62.97
2017-12-17T18:34:48.282Z,66.20
2017-12-17T18:37:24.258Z,74.25
2017-12-17T18:39:52.141Z,58.87
2017-12-17T18:42:20.292Z,69.43
2017-12-17T18:44:47.909Z,62.08
2017-12-17T18:47:15.648Z,62.00
2017-12-17T18:49:44.040Z,66.50
2017-12-17T18:52:11.711Z,60.15
2017-12-17T18:54:39.399Z,53.20
2017-12-17T18:57:07.061Z,57.13
2017-12-17T18:59:34.648Z,51.03
2017-12-17T19:02:02.290Z,72.47
2017-12-17T19:04:29.889Z,62.47
2017-12-17T19:06:59.196Z,57.67
2017-12-17T19:09:26.773Z,56.30
2017-12-17T19:11:55.105Z,77.45
2017-12-17T19:14:22.919Z,43.20
2017-12-17T19:16:50.491Z,58.25
2017-12-17T19:19:19.619Z,62.75
2017-12-17T19:21:47.332Z,63.90
2017-12-17T19:24:15.722Z,60.22
2017-12-17T19:26:43.426Z,53.50
2017-12-17T19:29:12.114Z,56.63
2017-12-17T19:31:39.819Z,59.22
2017-12-17T19:34:07.480Z,58.65
2017-12-17T19:36:35.283Z,54.65
2017-12-17T19:39:03.769Z,57.88
2017-12-17T19:41:31.391Z,61.50
2017-12-17T19:43:59.815Z,56.80
2017-12-17T19:46:27.459Z,53.40
2017-12-17T19:48:55.056Z,55.58
2017-12-17T19:51:22.756Z,57.88
2017-12-17T19:53:51.528Z,59.65
2017-12-17T19:56:20.702Z,57.45
2017-12-17T19:58:48.413Z,50.60
2017-12-17T20:01:16.768Z,58.63
2017-12-17T20:03:44.423Z,52.13
2017-12-17T20:06:11.980Z,58.78
2017-12-17T20:08:39.566Z,50.70
2017-12-17T20:11:07.981Z,43.42
2017-12-17T20:13:36.370Z,48.92
2017-12-17T20:16:03.958Z,55.60
2017-12-17T20:18:31.532Z,55.10
2017-12-17T20:20:59.131Z,47.00
2017-12-17T20:23:27.618Z,50.42
2017-12-17T20:25:56.012Z,54.78
2017-12-17T20:28:23.941Z,45.80
2017-12-17T20:30:52.360Z,57.85
2017-12-17T20:33:20.278Z,52.30
2017-12-17T20:35:47.883Z,59.17
2017-12-17T20:38:16.251Z,56.88
2017-12-17T20:40:44.621Z,49.22
2017-12-17T20:43:12.233Z,51.30
2017-12-17T20:45:39.995Z,32.40
2017-12-17T20:48:07.639Z,55.75
2017-12-17T20:50:35.251Z,38.17
2017-12-17T20:53:02.958Z,41.55
2017-12-17T20:55:31.326Z,41.83
2017-12-17T20:57:58.910Z,58.15
2017-12-17T21:00:26.464Z,45.72
2017-12-17T21:02:54.094Z,43.65
2017-12-17T21:05:21.813Z,40.22
2017-12-17T21:07:50.219Z,48.40
2017-12-17T21:10:17.818Z,39.08
2017-12-17T21:12:46.416Z,39.17
2017-12-17T21:15:14.028Z,39.28
2017-12-17T21:17:42.479Z,46.80
2017-12-17T21:20:10.145Z,45.85
2017-12-17T21:22:38.279Z,52.13
2017-12-17T21:25:05.932Z,42.92
2017-12-17T21:27:33.577Z,42.10
2017-12-17T21:30:01.186Z,48.00
2017-12-17T21:32:29.537Z,37.88
2017-12-17T21:34:57.117Z,53.97
2017-12-17T21:37:24.698Z,46.60
2017-12-17T21:39:52.284Z,45.83
2017-12-17T21:42:19.842Z,38.42
2017-12-17T21:44:47.438Z,46.08
2017-12-17T21:47:15.038Z,48.47
2017-12-17T21:49:43.427Z,37.75
2017-12-17T21:52:10.998Z,46.92
2017-12-17T21:54:38.576Z,34.92
2017-12-17T21:57:06.185Z,39.28
2017-12-17T21:59:34.347Z,49.28
2017-12-17T22:02:01.945Z,21.67
2017-12-17T22:04:30.603Z,29.20
2017-12-17T22:06:58.163Z,47.33
2017-12-17T22:09:25.727Z,22.30
2017-12-17T22:11:53.321Z,27.80
2017-12-17T22:14:20.925Z,32.85
2017-12-17T22:16:48.537Z,35.88
2017-12-17T22:19:16.139Z,32.08
2017-12-17T22:21:44.189Z,25.80
2017-12-17T22:24:11.790Z,33.05
2017-12-17T22:26:39.373Z,32.53
2017-12-17T22:29:07.534Z,33.80
2017-12-17T22:31:35.168Z,26.87
2017-12-17T22:34:02.892Z,25.35
2017-12-17T22:36:30.553Z,30.48
2017-12-17T22:38:58.176Z,18.02
2017-12-17T22:41:25.800Z,29.63
2017-12-17T22:43:53.368Z,22.37
2017-12-17T22:46:21.694Z,30.30
2017-12-17T22:48:50.079Z,25.73
2017-12-17T22:51:17.717Z,14.15
2017-12-17T22:53:45.384Z,25.70
2017-12-17T22:56:13.033Z,25.70
2017-12-17T22:58:40.661Z,24.70
2017-12-17T23:01:08.601Z,23.90
2017-12-17T23:03:36.245Z,21.58
2017-12-17T23:06:03.807Z,18.55
2017-12-17T23:08:31.432Z,25.35
2017-12-17T23:10:59.099Z,21.48
2017-12-17T23:13:26.716Z,16.85
2017-12-17T23:15:54.700Z,20.83
2017-12-17T23:18:22.261Z,16.50
2017-12-17T23:20:49.839Z,14.07
2017-12-17T23:23:17.403Z,16.73
2017-12-17T23:25:44.970Z,20.58
2017-12-17T23:28:12.655Z,15.98
2017-12-17T23:30:40.313Z,18.50
2017-12-17T23:33:07.884Z,13.27
2017-12-17T23:35:35.558Z,11.65
2017-12-17T23:38:03.197Z,20.50
2017-12-17T23:40:30.813Z,30.83
2017-12-17T23:42:59.200Z,12.45
2017-12-17T23:45:27.558Z,18.77
2017-12-17T23:47:55.280Z,14.20
2017-12-17T23:50:22.892Z,11.75
2017-12-17T23:52:51.235Z,19.92
2017-12-17T23:55:18.831Z,12.77
2017-12-17T23:57:46.505Z,20.05
